sensor_id;sensor_type;location;lat;lon;timestamp;pressure;altitude;pressure_sealevel;temperature;humidity
44974;BME280;60981;50.720;11.342;2023-07-13T00:00:25;100933.47;;;20.38;44.75
44974;BME280;60981;50.720;11.342;2023-07-13T00:01:27;101042.09;;;20.52;44.72
44974;BME280;60981;50.720;11.342;2023-07-13T00:02:29;101094.13;;;20.48;44.68
44974;BME280;60981;50.720;11.342;2023-07-13T00:03:31;101002.50;;;20.34;44.98
44974;BME280;60981;50.720;11.342;2023-07-13T00:04:36;100792.56;;;20.42;44.85
44974;BME280;60981;50.720;11.342;2023-07-13T00:05:38;100814.63;;;20.38;44.53
44974;BME280;60981;50.720;11.342;2023-07-13T00:06:40;100853.06;;;20.40;44.78
44974;BME280;60981;50.720;11.342;2023-07-13T00:07:47;100794.06;;;20.49;44.72
44974;BME280;60981;50.720;11.342;2023-07-13T00:08:49;100677.34;;;20.47;44.73
44974;BME280;60981;50.720;11.342;2023-07-13T00:09:51;100622.34;;;20.53;44.78
44974;BME280;60981;50.720;11.342;2023-07-13T00:10:53;100705.19;;;20.48;44.85
44974;BME280;60981;50.720;11.342;2023-07-13T00:11:57;100664.81;;;20.58;44.03
44974;BME280;60981;50.720;11.342;2023-07-13T00:12:59;100604.88;;;20.61;43.58
44974;BME280;60981;50.720;11.342;2023-07-13T00:14:02;100690.59;;;20.65;43.19
44974;BME280;60981;50.720;11.342;2023-07-13T00:15:10;100674.38;;;20.65;43.65
44974;BME280;60981;50.720;11.342;2023-07-13T00:16:13;100693.69;;;20.74;43.79
44974;BME280;60981;50.720;11.342;2023-07-13T00:17:16;100680.44;;;20.72;43.96
44974;BME280;60981;50.720;11.342;2023-07-13T00:18:17;100730.94;;;20.72;43.55
44974;BME280;60981;50.720;11.342;2023-07-13T00:19:19;100733.16;;;20.75;43.56
44974;BME280;60981;50.720;11.342;2023-07-13T00:20:23;100677.16;;;20.70;43.28
44974;BME280;60981;50.720;11.342;2023-07-13T00:21:26;100740.78;;;20.78;43.65
44974;BME280;60981;50.720;11.342;2023-07-13T00:22:28;100684.59;;;20.80;43.78
44974;BME280;60981;50.720;11.342;2023-07-13T00:23:39;100750.63;;;20.84;43.93
44974;BME280;60981;50.720;11.342;2023-07-13T00:24:41;100751.44;;;20.85;43.40
44974;BME280;60981;50.720;11.342;2023-07-13T00:25:43;100811.22;;;20.88;43.56
44974;BME280;60981;50.720;11.342;2023-07-13T00:26:45;100781.97;;;20.68;43.09
44974;BME280;60981;50.720;11.342;2023-07-13T00:27:48;100769.19;;;20.64;43.43
44974;BME280;60981;50.720;11.342;2023-07-13T00:28:52;100795.72;;;20.67;43.54
44974;BME280;60981;50.720;11.342;2023-07-13T00:29:54;100792.34;;;20.77;43.61
44974;BME280;60981;50.720;11.342;2023-07-13T00:30:56;100746.25;;;20.66;43.48
44974;BME280;60981;50.720;11.342;2023-07-13T00:31:59;100743.31;;;20.68;43.16
44974;BME280;60981;50.720;11.342;2023-07-13T00:33:01;100764.53;;;20.76;43.28
44974;BME280;60981;50.720;11.342;2023-07-13T00:34:18;100716.81;;;20.82;43.86
44974;BME280;60981;50.720;11.342;2023-07-13T00:35:20;100771.75;;;20.87;43.72
44974;BME280;60981;50.720;11.342;2023-07-13T00:36:21;100782.81;;;20.86;44.01
44974;BME280;60981;50.720;11.342;2023-07-13T00:37:23;100719.81;;;20.68;44.50
44974;BME280;60981;50.720;11.342;2023-07-13T00:38:25;100720.31;;;20.65;44.31
44974;BME280;60981;50.720;11.342;2023-07-13T00:39:27;100659.88;;;20.71;44.49
44974;BME280;60981;50.720;11.342;2023-07-13T00:40:29;100741.03;;;20.60;44.33
44974;BME280;60981;50.720;11.342;2023-07-13T00:41:31;100820.69;;;20.74;44.40
44974;BME280;60981;50.720;11.342;2023-07-13T00:42:34;100710.41;;;20.71;44.67
44974;BME280;60981;50.720;11.342;2023-07-13T00:43:36;100728.25;;;20.72;44.55
44974;BME280;60981;50.720;11.342;2023-07-13T00:44:38;100726.84;;;20.69;44.62
44974;BME280;60981;50.720;11.342;2023-07-13T00:46:46;100878.03;;;20.48;44.56
44974;BME280;60981;50.720;11.342;2023-07-13T00:47:48;100726.69;;;20.43;44.88
44974;BME280;60981;50.720;11.342;2023-07-13T00:48:53;100734.81;;;20.59;45.15
44974;BME280;60981;50.720;11.342;2023-07-13T00:49:55;100807.56;;;20.49;45.08
44974;BME280;60981;50.720;11.342;2023-07-13T00:51:00;100906.69;;;20.37;45.16
44974;BME280;60981;50.720;11.342;2023-07-13T00:52:07;100750.44;;;20.57;45.18
44974;BME280;60981;50.720;11.342;2023-07-13T00:53:10;100733.34;;;20.52;44.64
44974;BME280;60981;50.720;11.342;2023-07-13T00:54:17;100897.66;;;20.43;44.77
44974;BME280;60981;50.720;11.342;2023-07-13T00:55:21;100758.78;;;20.56;44.94
44974;BME280;60981;50.720;11.342;2023-07-13T00:56:23;100854.41;;;20.55;44.82
44974;BME280;60981;50.720;11.342;2023-07-13T00:57:26;100893.28;;;20.54;45.13
44974;BME280;60981;50.720;11.342;2023-07-13T00:58:28;100707.38;;;20.51;44.74
44974;BME280;60981;50.720;11.342;2023-07-13T00:59:31;100739.72;;;20.62;44.80
44974;BME280;60981;50.720;11.342;2023-07-13T01:00:36;100695.69;;;20.62;43.46
44974;BME280;60981;50.720;11.342;2023-07-13T01:01:39;100699.38;;;20.56;44.00
44974;BME280;60981;50.720;11.342;2023-07-13T01:02:43;100734.41;;;20.67;43.67
44974;BME280;60981;50.720;11.342;2023-07-13T01:03:45;100787.84;;;20.65;44.20
44974;BME280;60981;50.720;11.342;2023-07-13T01:04:48;100548.59;;;20.53;43.69
44974;BME280;60981;50.720;11.342;2023-07-13T01:05:50;100779.41;;;20.62;44.34
44974;BME280;60981;50.720;11.342;2023-07-13T01:06:56;100903.66;;;20.45;44.18
44974;BME280;60981;50.720;11.342;2023-07-13T01:07:59;100923.66;;;20.61;44.86
44974;BME280;60981;50.720;11.342;2023-07-13T01:09:02;100929.00;;;20.44;45.40
44974;BME280;60981;50.720;11.342;2023-07-13T01:10:06;100862.09;;;20.34;45.72
44974;BME280;60981;50.720;11.342;2023-07-13T01:11:08;100668.66;;;20.28;45.58
44974;BME280;60981;50.720;11.342;2023-07-13T01:12:10;100975.19;;;20.19;45.64
44974;BME280;60981;50.720;11.342;2023-07-13T01:13:13;100962.28;;;20.09;46.16
44974;BME280;60981;50.720;11.342;2023-07-13T01:14:15;100738.91;;;20.17;46.06
44974;BME280;60981;50.720;11.342;2023-07-13T01:15:34;100742.09;;;20.14;46.52
44974;BME280;60981;50.720;11.342;2023-07-13T01:16:37;100763.31;;;19.93;46.48
44974;BME280;60981;50.720;11.342;2023-07-13T01:17:40;100990.47;;;20.02;46.61
44974;BME280;60981;50.720;11.342;2023-07-13T01:18:42;100782.31;;;19.98;46.53
44974;BME280;60981;50.720;11.342;2023-07-13T01:19:45;100836.75;;;19.95;46.35
44974;BME280;60981;50.720;11.342;2023-07-13T01:20:56;100917.47;;;20.08;46.12
44974;BME280;60981;50.720;11.342;2023-07-13T01:21:58;100741.09;;;20.03;45.53
44974;BME280;60981;50.720;11.342;2023-07-13T01:23:00;100736.38;;;20.10;45.55
44974;BME280;60981;50.720;11.342;2023-07-13T01:24:02;100706.59;;;20.05;45.76
44974;BME280;60981;50.720;11.342;2023-07-13T01:25:05;100765.72;;;20.06;45.72
44974;BME280;60981;50.720;11.342;2023-07-13T01:26:06;100717.88;;;20.02;45.96
44974;BME280;60981;50.720;11.342;2023-07-13T01:27:11;101000.69;;;20.00;45.98
44974;BME280;60981;50.720;11.342;2023-07-13T01:28:12;100967.94;;;19.96;45.80
44974;BME280;60981;50.720;11.342;2023-07-13T01:29:15;100825.91;;;19.79;46.01
44974;BME280;60981;50.720;11.342;2023-07-13T01:30:17;100880.19;;;19.82;46.03
44974;BME280;60981;50.720;11.342;2023-07-13T01:31:18;100865.75;;;19.76;45.92
44974;BME280;60981;50.720;11.342;2023-07-13T01:32:23;100911.03;;;19.86;46.03
44974;BME280;60981;50.720;11.342;2023-07-13T01:33:26;100905.75;;;19.91;46.12
44974;BME280;60981;50.720;11.342;2023-07-13T01:34:28;100701.19;;;19.76;45.94
44974;BME280;60981;50.720;11.342;2023-07-13T01:35:30;100847.09;;;19.87;45.98
44974;BME280;60981;50.720;11.342;2023-07-13T01:36:32;100992.47;;;19.95;46.35
44974;BME280;60981;50.720;11.342;2023-07-13T01:37:35;100981.31;;;19.91;46.45
44974;BME280;60981;50.720;11.342;2023-07-13T01:38:37;100555.38;;;20.00;46.76
44974;BME280;60981;50.720;11.342;2023-07-13T01:39:39;100577.53;;;20.02;46.55
44974;BME280;60981;50.720;11.342;2023-07-13T01:40:41;100533.59;;;20.06;46.82
44974;BME280;60981;50.720;11.342;2023-07-13T01:41:43;100530.25;;;19.99;47.06
44974;BME280;60981;50.720;11.342;2023-07-13T01:42:45;100544.97;;;19.92;46.76
44974;BME280;60981;50.720;11.342;2023-07-13T01:43:47;100482.75;;;19.98;47.10
44974;BME280;60981;50.720;11.342;2023-07-13T01:44:49;100521.19;;;20.05;46.85
44974;BME280;60981;50.720;11.342;2023-07-13T01:45:52;100520.78;;;19.97;47.05
44974;BME280;60981;50.720;11.342;2023-07-13T01:47:01;100519.22;;;20.01;46.69
44974;BME280;60981;50.720;11.342;2023-07-13T01:48:03;100609.66;;;20.03;46.70
44974;BME280;60981;50.720;11.342;2023-07-13T01:49:08;100493.88;;;20.02;46.88
44974;BME280;60981;50.720;11.342;2023-07-13T01:50:10;100490.59;;;20.00;46.99
44974;BME280;60981;50.720;11.342;2023-07-13T01:51:11;100449.56;;;19.98;47.26
44974;BME280;60981;50.720;11.342;2023-07-13T01:52:13;100490.28;;;19.96;47.24
44974;BME280;60981;50.720;11.342;2023-07-13T01:53:15;100555.53;;;19.93;47.26
44974;BME280;60981;50.720;11.342;2023-07-13T01:54:17;100510.97;;;19.91;47.36
44974;BME280;60981;50.720;11.342;2023-07-13T01:55:19;100503.38;;;19.88;47.27
44974;BME280;60981;50.720;11.342;2023-07-13T01:56:21;100494.72;;;19.86;47.12
44974;BME280;60981;50.720;11.342;2023-07-13T01:57:23;100557.81;;;19.85;47.17
44974;BME280;60981;50.720;11.342;2023-07-13T01:58:25;100499.53;;;19.84;47.09
44974;BME280;60981;50.720;11.342;2023-07-13T01:59:27;100505.41;;;19.81;47.36
44974;BME280;60981;50.720;11.342;2023-07-13T02:00:28;100543.88;;;19.76;47.56
44974;BME280;60981;50.720;11.342;2023-07-13T02:01:30;100648.28;;;19.75;47.94
44974;BME280;60981;50.720;11.342;2023-07-13T02:02:32;100612.63;;;19.73;47.60
44974;BME280;60981;50.720;11.342;2023-07-13T02:03:34;100700.03;;;19.72;47.66
44974;BME280;60981;50.720;11.342;2023-07-13T02:04:36;100685.13;;;19.70;47.92
44974;BME280;60981;50.720;11.342;2023-07-13T02:05:37;100690.78;;;19.68;47.86
44974;BME280;60981;50.720;11.342;2023-07-13T02:06:39;100597.34;;;19.62;48.55
44974;BME280;60981;50.720;11.342;2023-07-13T02:07:41;100506.69;;;19.61;48.03
44974;BME280;60981;50.720;11.342;2023-07-13T02:08:43;100586.22;;;19.59;48.43
44974;BME280;60981;50.720;11.342;2023-07-13T02:09:45;100767.97;;;19.58;48.43
44974;BME280;60981;50.720;11.342;2023-07-13T02:10:47;100800.56;;;19.56;48.19
44974;BME280;60981;50.720;11.342;2023-07-13T02:11:48;100618.00;;;19.57;48.05
44974;BME280;60981;50.720;11.342;2023-07-13T02:12:50;100748.50;;;19.56;48.18
44974;BME280;60981;50.720;11.342;2023-07-13T02:13:52;100639.81;;;19.55;47.96
44974;BME280;60981;50.720;11.342;2023-07-13T02:14:54;100682.16;;;19.55;48.64
44974;BME280;60981;50.720;11.342;2023-07-13T02:15:55;100597.50;;;19.56;48.15
44974;BME280;60981;50.720;11.342;2023-07-13T02:16:57;100564.56;;;19.54;48.28
44974;BME280;60981;50.720;11.342;2023-07-13T02:17:59;100588.22;;;19.52;48.61
44974;BME280;60981;50.720;11.342;2023-07-13T02:19:00;100637.81;;;19.51;48.62
44974;BME280;60981;50.720;11.342;2023-07-13T02:20:03;100786.38;;;19.49;49.26
44974;BME280;60981;50.720;11.342;2023-07-13T02:21:05;100605.69;;;19.49;49.04
44974;BME280;60981;50.720;11.342;2023-07-13T02:22:06;100778.28;;;19.49;49.10
44974;BME280;60981;50.720;11.342;2023-07-13T02:23:08;100745.91;;;19.49;48.65
44974;BME280;60981;50.720;11.342;2023-07-13T02:24:10;100605.13;;;19.47;47.95
44974;BME280;60981;50.720;11.342;2023-07-13T02:25:16;100645.47;;;19.42;48.18
44974;BME280;60981;50.720;11.342;2023-07-13T02:26:18;100557.94;;;19.33;48.10
44974;BME280;60981;50.720;11.342;2023-07-13T02:27:20;100632.03;;;19.30;48.61
44974;BME280;60981;50.720;11.342;2023-07-13T02:28:22;100326.53;;;19.25;48.46
44974;BME280;60981;50.720;11.342;2023-07-13T02:29:24;100382.81;;;19.21;48.99
44974;BME280;60981;50.720;11.342;2023-07-13T02:30:26;100233.44;;;19.17;48.80
44974;BME280;60981;50.720;11.342;2023-07-13T02:31:28;100228.56;;;19.14;49.30
44974;BME280;60981;50.720;11.342;2023-07-13T02:32:30;100195.56;;;19.07;49.04
44974;BME280;60981;50.720;11.342;2023-07-13T02:33:32;100133.78;;;19.00;49.59
44974;BME280;60981;50.720;11.342;2023-07-13T02:34:34;100100.84;;;18.93;49.98
44974;BME280;60981;50.720;11.342;2023-07-13T02:35:35;100258.63;;;18.89;49.69
44974;BME280;60981;50.720;11.342;2023-07-13T02:36:37;100170.47;;;18.85;49.88
44974;BME280;60981;50.720;11.342;2023-07-13T02:37:39;100222.41;;;18.80;50.38
44974;BME280;60981;50.720;11.342;2023-07-13T02:38:41;100175.22;;;18.77;49.92
44974;BME280;60981;50.720;11.342;2023-07-13T02:39:43;100181.94;;;18.75;49.97
44974;BME280;60981;50.720;11.342;2023-07-13T02:40:45;100280.75;;;18.74;50.05
44974;BME280;60981;50.720;11.342;2023-07-13T02:41:47;100250.06;;;18.75;49.76
44974;BME280;60981;50.720;11.342;2023-07-13T02:42:49;100182.75;;;18.75;49.86
44974;BME280;60981;50.720;11.342;2023-07-13T02:43:51;100209.66;;;18.75;50.10
44974;BME280;60981;50.720;11.342;2023-07-13T02:44:53;100191.88;;;18.74;49.94
44974;BME280;60981;50.720;11.342;2023-07-13T02:45:55;100175.13;;;18.72;49.85
44974;BME280;60981;50.720;11.342;2023-07-13T02:46:57;100223.03;;;18.70;50.00
44974;BME280;60981;50.720;11.342;2023-07-13T02:47:58;100243.50;;;18.71;49.90
44974;BME280;60981;50.720;11.342;2023-07-13T02:49:00;100229.84;;;18.73;49.61
44974;BME280;60981;50.720;11.342;2023-07-13T02:50:02;100154.44;;;18.73;49.88
44974;BME280;60981;50.720;11.342;2023-07-13T02:51:04;100229.00;;;18.72;50.13
44974;BME280;60981;50.720;11.342;2023-07-13T02:52:06;100182.38;;;18.72;50.33
44974;BME280;60981;50.720;11.342;2023-07-13T02:53:08;100249.97;;;18.70;50.27
44974;BME280;60981;50.720;11.342;2023-07-13T02:54:10;100276.66;;;18.72;50.43
44974;BME280;60981;50.720;11.342;2023-07-13T02:55:13;100224.91;;;18.70;50.27
44974;BME280;60981;50.720;11.342;2023-07-13T02:56:14;100220.59;;;18.69;50.41
44974;BME280;60981;50.720;11.342;2023-07-13T02:57:17;100152.69;;;18.67;50.56
44974;BME280;60981;50.720;11.342;2023-07-13T02:58:19;100139.16;;;18.62;50.86
44974;BME280;60981;50.720;11.342;2023-07-13T02:59:21;100136.38;;;18.57;50.68
44974;BME280;60981;50.720;11.342;2023-07-13T03:00:23;100143.88;;;18.55;50.89
44974;BME280;60981;50.720;11.342;2023-07-13T03:01:25;100138.16;;;18.51;50.89
44974;BME280;60981;50.720;11.342;2023-07-13T03:02:27;100238.81;;;18.50;51.14
44974;BME280;60981;50.720;11.342;2023-07-13T03:03:29;100155.06;;;18.46;50.98
44974;BME280;60981;50.720;11.342;2023-07-13T03:04:31;100149.34;;;18.43;51.22
44974;BME280;60981;50.720;11.342;2023-07-13T03:05:33;100205.06;;;18.42;51.21
44974;BME280;60981;50.720;11.342;2023-07-13T03:06:35;100229.75;;;18.39;51.07
44974;BME280;60981;50.720;11.342;2023-07-13T03:07:37;100157.34;;;18.38;51.33
44974;BME280;60981;50.720;11.342;2023-07-13T03:08:38;100191.50;;;18.37;51.47
44974;BME280;60981;50.720;11.342;2023-07-13T03:09:40;100151.38;;;18.36;51.63
44974;BME280;60981;50.720;11.342;2023-07-13T03:10:42;100213.53;;;18.34;50.48
44974;BME280;60981;50.720;11.342;2023-07-13T03:11:44;100053.13;;;18.33;50.65
44974;BME280;60981;50.720;11.342;2023-07-13T03:12:46;100125.78;;;18.33;50.40
44974;BME280;60981;50.720;11.342;2023-07-13T03:13:47;100181.25;;;18.34;50.32
44974;BME280;60981;50.720;11.342;2023-07-13T03:14:50;100147.88;;;18.35;50.53
44974;BME280;60981;50.720;11.342;2023-07-13T03:15:51;100132.78;;;18.34;51.10
44974;BME280;60981;50.720;11.342;2023-07-13T03:16:54;100153.50;;;18.34;51.02
44974;BME280;60981;50.720;11.342;2023-07-13T03:17:56;100139.47;;;18.32;50.92
44974;BME280;60981;50.720;11.342;2023-07-13T03:18:57;100091.53;;;18.29;51.03
44974;BME280;60981;50.720;11.342;2023-07-13T03:19:59;100151.78;;;18.28;51.13
44974;BME280;60981;50.720;11.342;2023-07-13T03:21:01;100055.09;;;18.21;51.73
44974;BME280;60981;50.720;11.342;2023-07-13T03:22:03;100086.00;;;18.18;52.24
44974;BME280;60981;50.720;11.342;2023-07-13T03:23:05;99989.13;;;18.18;51.72
44974;BME280;60981;50.720;11.342;2023-07-13T03:24:06;100063.91;;;18.16;52.49
44974;BME280;60981;50.720;11.342;2023-07-13T03:25:08;100105.31;;;18.15;52.76
44974;BME280;60981;50.720;11.342;2023-07-13T03:26:14;100013.28;;;18.13;53.25
44974;BME280;60981;50.720;11.342;2023-07-13T03:27:17;100031.78;;;18.10;53.27
44974;BME280;60981;50.720;11.342;2023-07-13T03:28:19;99941.38;;;18.09;53.60
44974;BME280;60981;50.720;11.342;2023-07-13T03:29:21;100101.16;;;18.08;53.28
44974;BME280;60981;50.720;11.342;2023-07-13T03:30:23;99943.75;;;18.05;53.45
44974;BME280;60981;50.720;11.342;2023-07-13T03:31:26;99874.06;;;18.04;53.39
44974;BME280;60981;50.720;11.342;2023-07-13T03:32:28;99936.19;;;18.02;53.16
44974;BME280;60981;50.720;11.342;2023-07-13T03:33:30;99851.44;;;18.00;52.98
44974;BME280;60981;50.720;11.342;2023-07-13T03:34:32;99788.75;;;17.99;52.56
44974;BME280;60981;50.720;11.342;2023-07-13T03:35:34;99810.53;;;17.98;52.93
44974;BME280;60981;50.720;11.342;2023-07-13T03:36:36;99777.19;;;17.99;52.60
44974;BME280;60981;50.720;11.342;2023-07-13T03:37:37;99782.81;;;17.97;52.62
44974;BME280;60981;50.720;11.342;2023-07-13T03:38:48;99786.06;;;17.99;52.45
44974;BME280;60981;50.720;11.342;2023-07-13T03:39:50;99852.50;;;17.99;52.40
44974;BME280;60981;50.720;11.342;2023-07-13T03:40:52;99789.56;;;18.00;52.40
44974;BME280;60981;50.720;11.342;2023-07-13T03:41:54;99832.34;;;18.01;52.76
44974;BME280;60981;50.720;11.342;2023-07-13T03:42:56;99783.13;;;18.01;52.94
44974;BME280;60981;50.720;11.342;2023-07-13T03:43:58;99799.25;;;18.01;52.64
44974;BME280;60981;50.720;11.342;2023-07-13T03:44:59;99789.81;;;17.98;52.99
44974;BME280;60981;50.720;11.342;2023-07-13T03:46:01;99847.38;;;17.97;52.96
44974;BME280;60981;50.720;11.342;2023-07-13T03:47:03;99767.75;;;17.96;52.85
44974;BME280;60981;50.720;11.342;2023-07-13T03:48:05;99802.41;;;17.93;53.08
44974;BME280;60981;50.720;11.342;2023-07-13T03:49:07;99751.31;;;17.93;52.73
44974;BME280;60981;50.720;11.342;2023-07-13T03:50:08;99741.59;;;17.92;52.95
44974;BME280;60981;50.720;11.342;2023-07-13T03:51:10;99756.13;;;17.91;53.07
44974;BME280;60981;50.720;11.342;2023-07-13T03:52:14;99764.19;;;17.91;53.11
44974;BME280;60981;50.720;11.342;2023-07-13T03:53:16;99835.16;;;17.90;53.18
44974;BME280;60981;50.720;11.342;2023-07-13T03:54:18;99779.75;;;17.89;53.14
44974;BME280;60981;50.720;11.342;2023-07-13T03:55:19;99761.19;;;17.87;53.36
44974;BME280;60981;50.720;11.342;2023-07-13T03:56:21;99795.34;;;17.86;52.69
44974;BME280;60981;50.720;11.342;2023-07-13T03:57:23;99760.38;;;17.86;52.19
44974;BME280;60981;50.720;11.342;2023-07-13T03:59:27;99749.88;;;17.85;52.43
44974;BME280;60981;50.720;11.342;2023-07-13T04:00:29;99733.19;;;17.83;52.61
44974;BME280;60981;50.720;11.342;2023-07-13T04:01:31;99765.13;;;17.79;52.75
44974;BME280;60981;50.720;11.342;2023-07-13T04:02:33;99767.81;;;17.79;52.71
44974;BME280;60981;50.720;11.342;2023-07-13T04:03:35;99783.13;;;17.79;52.91
44974;BME280;60981;50.720;11.342;2023-07-13T04:04:37;99769.38;;;17.75;52.99
44974;BME280;60981;50.720;11.342;2023-07-13T04:05:42;99804.59;;;17.74;52.61
44974;BME280;60981;50.720;11.342;2023-07-13T04:06:43;99778.50;;;17.74;52.74
44974;BME280;60981;50.720;11.342;2023-07-13T04:07:45;99800.28;;;17.73;52.58
44974;BME280;60981;50.720;11.342;2023-07-13T04:09:08;99717.75;;;17.73;52.37
44974;BME280;60981;50.720;11.342;2023-07-13T04:10:10;99741.13;;;17.73;52.89
44974;BME280;60981;50.720;11.342;2023-07-13T04:11:12;99745.44;;;17.74;52.68
44974;BME280;60981;50.720;11.342;2023-07-13T04:12:14;99752.19;;;17.76;52.39
44974;BME280;60981;50.720;11.342;2023-07-13T04:13:16;99731.75;;;17.75;52.78
44974;BME280;60981;50.720;11.342;2023-07-13T04:14:18;99769.13;;;17.77;52.66
44974;BME280;60981;50.720;11.342;2023-07-13T04:15:20;99751.94;;;17.78;52.69
44974;BME280;60981;50.720;11.342;2023-07-13T04:16:22;99750.88;;;17.79;52.93
44974;BME280;60981;50.720;11.342;2023-07-13T04:17:24;99733.94;;;17.78;52.85
44974;BME280;60981;50.720;11.342;2023-07-13T04:18:26;99750.56;;;17.75;53.34
44974;BME280;60981;50.720;11.342;2023-07-13T04:19:27;99776.88;;;17.73;53.32
44974;BME280;60981;50.720;11.342;2023-07-13T04:20:29;99725.25;;;17.71;53.45
44974;BME280;60981;50.720;11.342;2023-07-13T04:21:31;99758.31;;;17.72;53.09
44974;BME280;60981;50.720;11.342;2023-07-13T04:22:33;99759.94;;;17.73;54.05
44974;BME280;60981;50.720;11.342;2023-07-13T04:23:35;99721.50;;;17.72;54.51
44974;BME280;60981;50.720;11.342;2023-07-13T04:24:37;99742.19;;;17.72;54.83
44974;BME280;60981;50.720;11.342;2023-07-13T04:25:42;99743.00;;;17.72;54.56
44974;BME280;60981;50.720;11.342;2023-07-13T04:26:44;99761.25;;;17.70;54.97
44974;BME280;60981;50.720;11.342;2023-07-13T04:27:47;99706.50;;;17.60;54.93
44974;BME280;60981;50.720;11.342;2023-07-13T04:28:49;99710.94;;;17.49;55.50
44974;BME280;60981;50.720;11.342;2023-07-13T04:29:50;99773.81;;;17.48;55.65
44974;BME280;60981;50.720;11.342;2023-07-13T04:30:53;99667.63;;;17.45;55.33
44974;BME280;60981;50.720;11.342;2023-07-13T04:31:55;99696.63;;;17.43;55.27
44974;BME280;60981;50.720;11.342;2023-07-13T04:32:57;99689.13;;;17.45;55.30
44974;BME280;60981;50.720;11.342;2023-07-13T04:33:58;99682.44;;;17.48;54.89
44974;BME280;60981;50.720;11.342;2023-07-13T04:35:00;99712.56;;;17.50;55.03
44974;BME280;60981;50.720;11.342;2023-07-13T04:36:02;99672.56;;;17.53;54.72
44974;BME280;60981;50.720;11.342;2023-07-13T04:37:04;99689.00;;;17.57;54.90
44974;BME280;60981;50.720;11.342;2023-07-13T04:38:06;99658.94;;;17.60;55.18
44974;BME280;60981;50.720;11.342;2023-07-13T04:39:08;99695.00;;;17.64;55.51
44974;BME280;60981;50.720;11.342;2023-07-13T04:40:10;99683.19;;;17.65;55.34
44974;BME280;60981;50.720;11.342;2023-07-13T04:41:13;99707.16;;;17.67;55.86
44974;BME280;60981;50.720;11.342;2023-07-13T04:42:16;99701.53;;;17.68;56.00
44974;BME280;60981;50.720;11.342;2023-07-13T04:43:18;99716.38;;;17.71;55.55
44974;BME280;60981;50.720;11.342;2023-07-13T04:44:20;99704.56;;;17.72;55.65
44974;BME280;60981;50.720;11.342;2023-07-13T04:45:22;99686.84;;;17.76;55.51
44974;BME280;60981;50.720;11.342;2023-07-13T04:46:25;99730.69;;;17.76;55.34
44974;BME280;60981;50.720;11.342;2023-07-13T04:47:29;99731.50;;;17.77;54.47
44974;BME280;60981;50.720;11.342;2023-07-13T04:48:31;99699.22;;;17.77;54.62
44974;BME280;60981;50.720;11.342;2023-07-13T04:49:33;99713.22;;;17.79;54.60
44974;BME280;60981;50.720;11.342;2023-07-13T04:50:37;99694.16;;;17.80;54.61
44974;BME280;60981;50.720;11.342;2023-07-13T04:51:39;99715.41;;;17.82;54.82
44974;BME280;60981;50.720;11.342;2023-07-13T04:52:41;99712.47;;;17.83;54.69
44974;BME280;60981;50.720;11.342;2023-07-13T04:53:43;99728.91;;;17.87;54.55
44974;BME280;60981;50.720;11.342;2023-07-13T04:54:45;99710.91;;;17.88;54.38
44974;BME280;60981;50.720;11.342;2023-07-13T04:55:47;99753.19;;;17.92;54.40
44974;BME280;60981;50.720;11.342;2023-07-13T04:56:48;99741.03;;;17.90;54.23
44974;BME280;60981;50.720;11.342;2023-07-13T04:57:50;99734.25;;;17.82;54.13
44974;BME280;60981;50.720;11.342;2023-07-13T04:58:52;99743.94;;;17.83;54.22
44974;BME280;60981;50.720;11.342;2023-07-13T04:59:54;99736.13;;;17.81;54.59
44974;BME280;60981;50.720;11.342;2023-07-13T05:01:00;99734.50;;;17.80;54.34
44974;BME280;60981;50.720;11.342;2023-07-13T05:02:02;99744.75;;;17.83;54.41
44974;BME280;60981;50.720;11.342;2023-07-13T05:03:04;99726.44;;;17.80;54.34
44974;BME280;60981;50.720;11.342;2023-07-13T05:04:06;99763.00;;;17.81;54.50
44974;BME280;60981;50.720;11.342;2023-07-13T05:05:08;99765.75;;;17.86;54.49
44974;BME280;60981;50.720;11.342;2023-07-13T05:06:09;99754.50;;;17.90;53.92
44974;BME280;60981;50.720;11.342;2023-07-13T05:07:12;99747.81;;;17.92;53.97
44974;BME280;60981;50.720;11.342;2023-07-13T05:08:14;99749.47;;;17.98;54.25
44974;BME280;60981;50.720;11.342;2023-07-13T05:09:16;99761.66;;;18.06;53.72
44974;BME280;60981;50.720;11.342;2023-07-13T05:10:18;99779.44;;;18.07;53.69
44974;BME280;60981;50.720;11.342;2023-07-13T05:11:20;99785.44;;;18.14;53.54
44974;BME280;60981;50.720;11.342;2023-07-13T05:12:22;99782.28;;;18.22;53.44
44974;BME280;60981;50.720;11.342;2023-07-13T05:13:23;99778.03;;;18.26;53.24
44974;BME280;60981;50.720;11.342;2023-07-13T05:14:27;99775.94;;;18.33;53.05
44974;BME280;60981;50.720;11.342;2023-07-13T05:15:28;99810.41;;;18.36;52.57
44974;BME280;60981;50.720;11.342;2023-07-13T05:16:30;99798.59;;;18.37;52.77
44974;BME280;60981;50.720;11.342;2023-07-13T05:17:34;99791.88;;;18.40;52.56
44974;BME280;60981;50.720;11.342;2023-07-13T05:18:36;99815.94;;;18.51;52.63
44974;BME280;60981;50.720;11.342;2023-07-13T05:19:39;99835.91;;;18.56;52.29
44974;BME280;60981;50.720;11.342;2023-07-13T05:20:41;99882.88;;;18.65;52.09
44974;BME280;60981;50.720;11.342;2023-07-13T05:21:42;99901.84;;;18.75;52.12
44974;BME280;60981;50.720;11.342;2023-07-13T05:22:44;99970.88;;;18.81;51.82
44974;BME280;60981;50.720;11.342;2023-07-13T05:23:49;100034.19;;;18.84;51.44
44974;BME280;60981;50.720;11.342;2023-07-13T05:24:51;99959.09;;;18.87;51.38
44974;BME280;60981;50.720;11.342;2023-07-13T05:25:53;99985.00;;;18.93;51.20